createdAt,value
2018-06-10T00:00:34.559Z,100380.98
2018-06-10T00:03:05.638Z,100395.96
2018-06-10T00:05:36.404Z,100407.66
2018-06-10T00:08:11.020Z,100416.33
2018-06-10T00:12:51.218Z,100442.61
2018-06-10T00:15:21.590Z,100456.59
2018-06-10T00:17:51.774Z,100454.02
2018-06-10T00:20:21.654Z,100454.77
2018-06-10T00:22:52.065Z,100445.11
2018-06-10T00:25:21.976Z,100437.16
2018-06-10T00:27:51.885Z,100421.02
2018-06-10T00:30:21.822Z,100408.89
2018-06-10T00:32:51.628Z,100399.63
2018-06-10T00:35:21.423Z,100392.49
2018-06-10T00:37:52.295Z,100393.55
2018-06-10T00:40:23.122Z,100384.89
2018-06-10T00:42:53.183Z,100379.45
2018-06-10T00:45:24.209Z,100396.13
2018-06-10T00:47:54.233Z,100403.78
2018-06-10T00:50:24.545Z,100413.83
2018-06-10T00:52:54.742Z,100416.20
2018-06-10T00:55:26.931Z,100405.20
2018-06-10T00:57:57.068Z,100401.60
2018-06-10T01:00:27.213Z,100391.67
2018-06-10T01:02:58.202Z,100386.94
2018-06-10T01:05:28.495Z,100383.48
2018-06-10T01:07:59.601Z,100379.81
2018-06-10T01:10:30.173Z,100383.67
2018-06-10T01:13:01.004Z,100384.12
2018-06-10T01:15:31.735Z,100377.42
2018-06-10T01:18:01.938Z,100365.45
2018-06-10T01:20:31.928Z,100361.64
2018-06-10T01:23:02.075Z,100355.28
2018-06-10T01:25:33.324Z,100345.50
2018-06-10T01:28:03.475Z,100347.86
2018-06-10T01:30:34.008Z,100349.19
2018-06-10T01:33:04.210Z,100355.70
2018-06-10T01:35:34.381Z,100348.19
2018-06-10T01:38:05.320Z,100355.72
2018-06-10T01:40:35.633Z,100353.88
2018-06-10T01:43:05.704Z,100348.11
2018-06-10T01:45:36.175Z,100345.11
2018-06-10T01:48:06.394Z,100342.12
2018-06-10T01:50:38.451Z,100345.70
2018-06-10T01:53:08.575Z,100338.42
2018-06-10T01:55:38.790Z,100336.49
2018-06-10T01:58:09.132Z,100335.61
2018-06-10T02:00:40.140Z,100330.59
2018-06-10T02:03:10.582Z,100326.52
2018-06-10T02:05:41.237Z,100324.09
2018-06-10T02:08:11.309Z,100321.24
2018-06-10T02:10:41.887Z,100319.43
2018-06-10T02:13:12.073Z,100319.37
2018-06-10T02:15:42.209Z,100311.52
2018-06-10T02:18:12.177Z,100305.16
2018-06-10T02:20:42.627Z,100306.60
2018-06-10T02:23:12.984Z,100295.19
2018-06-10T02:25:43.335Z,100291.83
2018-06-10T02:28:13.635Z,100289.62
2018-06-10T02:30:43.964Z,100295.10
2018-06-10T02:33:14.592Z,100294.08
2018-06-10T02:35:44.648Z,100296.70
2018-06-10T02:38:14.857Z,100306.26
2018-06-10T02:40:45.501Z,100318.91
2018-06-10T02:43:16.131Z,100321.35
2018-06-10T02:45:46.591Z,100331.62
2018-06-10T02:48:16.642Z,100327.72
2018-06-10T02:50:47.323Z,100320.71
2018-06-10T02:53:17.687Z,100310.89
2018-06-10T02:55:47.745Z,100309.50
2018-06-10T02:58:17.821Z,100310.69
2018-06-10T03:00:47.989Z,100317.66
2018-06-10T03:03:17.811Z,100326.23
2018-06-10T03:05:48.457Z,100326.00
2018-06-10T03:08:18.663Z,100323.02
2018-06-10T03:10:49.324Z,100327.27
2018-06-10T03:13:21.184Z,100336.67
2018-06-10T03:15:51.612Z,100338.83
2018-06-10T03:18:22.126Z,100347.05
2018-06-10T03:20:52.627Z,100353.22
2018-06-10T03:23:22.709Z,100347.49
2018-06-10T03:25:53.213Z,100357.18
2018-06-10T03:28:23.157Z,100351.86
2018-06-10T03:30:53.723Z,100345.34
2018-06-10T03:33:23.839Z,100347.42
2018-06-10T03:35:54.107Z,100347.65
2018-06-10T03:38:24.647Z,100351.66
2018-06-10T03:40:55.952Z,100352.23
2018-06-10T03:43:26.381Z,100360.13
2018-06-10T03:45:57.085Z,100343.52
2018-06-10T03:48:27.773Z,100344.50
2018-06-10T03:51:02.539Z,100344.72
2018-06-10T03:53:34.316Z,100344.69
2018-06-10T03:56:04.667Z,100348.75
2018-06-10T03:58:35.756Z,100364.23
2018-06-10T04:01:06.026Z,100356.25
2018-06-10T04:03:37.498Z,100353.56
2018-06-10T04:06:07.784Z,100352.56
2018-06-10T04:08:39.436Z,100354.80
2018-06-10T04:11:12.272Z,100354.41
2018-06-10T04:13:42.910Z,100362.06
2018-06-10T04:16:14.598Z,100366.26
2018-06-10T04:18:44.959Z,100363.98
2018-06-10T04:21:17.687Z,100357.45
2018-06-10T04:23:49.097Z,100364.32
2018-06-10T04:26:18.975Z,100361.48
2018-06-10T04:28:48.996Z,100362.34
2018-06-10T04:31:19.041Z,100361.11
2018-06-10T04:33:49.358Z,100359.75
2018-06-10T04:36:19.463Z,100357.86
2018-06-10T04:38:49.251Z,100365.37
2018-06-10T04:41:19.691Z,100362.42
2018-06-10T04:43:49.589Z,100361.73
2018-06-10T04:46:19.591Z,100363.25
2018-06-10T04:48:49.382Z,100363.00
2018-06-10T04:51:20.594Z,100359.72
2018-06-10T04:53:50.700Z,100369.06
2018-06-10T04:56:20.623Z,100364.95
2018-06-10T04:58:50.776Z,100369.76
2018-06-10T05:01:20.733Z,100370.91
2018-06-10T05:03:50.643Z,100366.17
2018-06-10T05:06:20.754Z,100369.86
2018-06-10T05:08:50.725Z,100370.30
2018-06-10T05:11:21.135Z,100365.28
2018-06-10T05:13:51.166Z,100370.83
2018-06-10T05:16:26.464Z,100377.90
2018-06-10T05:18:57.183Z,100371.38
2018-06-10T05:21:28.058Z,100362.81
2018-06-10T05:24:07.277Z,100361.08
2018-06-10T05:26:48.471Z,100360.94
2018-06-10T05:29:19.686Z,100369.10
2018-06-10T05:31:50.716Z,100371.23
2018-06-10T05:34:20.685Z,100372.85
2018-06-10T05:36:50.872Z,100375.48
2018-06-10T05:42:34.212Z,100373.91
2018-06-10T05:48:49.996Z,100376.33
2018-06-10T05:51:21.203Z,100374.29
2018-06-10T06:20:19.200Z,100385.17
2018-06-10T06:22:49.272Z,100387.70
2018-06-10T06:26:26.594Z,100387.28
2018-06-10T06:28:56.860Z,100390.81
2018-06-10T06:31:28.406Z,100386.34
2018-06-10T06:34:25.549Z,100383.02
2018-06-10T06:57:27.129Z,100390.14
2018-06-10T12:48:35.954Z,100355.90
2018-06-10T12:51:08.385Z,100355.06
2018-06-10T12:56:48.265Z,100352.27
2018-06-10T12:59:18.588Z,100352.22
2018-06-10T13:02:07.144Z,100352.11
2018-06-10T13:04:37.700Z,100346.76
2018-06-10T13:07:08.619Z,100346.09
2018-06-10T13:10:14.806Z,100349.42
2018-06-10T13:12:50.249Z,100341.05
2018-06-10T13:15:36.273Z,100349.08
2018-06-10T13:18:08.507Z,100348.22
2018-06-10T13:23:21.932Z,100346.23
2018-06-10T13:25:52.852Z,100338.91
2018-06-10T13:28:34.956Z,100351.39
2018-06-10T13:31:06.706Z,100352.61
2018-06-10T13:33:37.838Z,100351.75
2018-06-10T13:36:08.163Z,100350.27
2018-06-10T13:38:39.394Z,100354.10
2018-06-10T13:41:12.487Z,100353.41
2018-06-10T13:43:52.170Z,100353.70
2018-06-10T13:46:28.756Z,100345.53
2018-06-10T13:49:00.252Z,100343.97
2018-06-10T13:51:38.539Z,100343.86
2018-06-10T13:54:10.411Z,100339.90
2018-06-10T13:56:45.920Z,100350.23
2018-06-10T14:02:15.012Z,100340.60
2018-06-10T14:04:44.778Z,100340.05
2018-06-10T14:10:45.296Z,100331.24
2018-06-10T14:13:27.086Z,100333.24
2018-06-10T14:16:01.712Z,100330.91
2018-06-10T14:18:33.550Z,100329.58
2018-06-10T14:21:03.529Z,100339.92
2018-06-10T14:23:33.801Z,100328.24
2018-06-10T14:26:03.660Z,100329.75
2018-06-10T14:28:33.542Z,100329.59
2018-06-10T14:31:03.619Z,100328.78
2018-06-10T14:33:34.447Z,100320.59
2018-06-10T14:36:04.612Z,100338.27
2018-06-10T14:38:34.854Z,100335.09
2018-06-10T14:41:04.708Z,100334.09
2018-06-10T14:43:34.640Z,100334.55
2018-06-10T14:46:04.723Z,100332.75
2018-06-10T14:48:34.576Z,100324.58
2018-06-10T14:51:04.586Z,100330.05
2018-06-10T14:53:35.115Z,100332.11
2018-06-10T14:56:05.139Z,100326.74
2018-06-10T14:58:35.188Z,100325.09
2018-06-10T15:01:05.408Z,100323.43
2018-06-10T15:03:35.264Z,100322.74
2018-06-10T15:06:06.507Z,100323.53
2018-06-10T15:08:37.026Z,100323.44
2018-06-10T15:11:07.970Z,100326.96
2018-06-10T15:13:39.719Z,100320.61
2018-06-10T15:16:10.134Z,100316.77
2018-06-10T15:18:42.219Z,100313.62
2018-06-10T15:21:12.494Z,100321.77
2018-06-10T15:23:42.955Z,100315.42
2018-06-10T15:26:13.405Z,100323.12
2018-06-10T15:28:47.432Z,100318.09
2018-06-10T15:31:21.093Z,100317.73
2018-06-10T15:34:05.470Z,100322.70
2018-06-10T15:36:36.866Z,100325.77
2018-06-10T15:39:10.472Z,100316.08
2018-06-10T15:41:45.729Z,100318.92
2018-06-10T15:44:16.616Z,100312.36
2018-06-10T15:46:47.102Z,100311.05
2018-06-10T15:49:22.050Z,100304.34
2018-06-10T15:51:58.731Z,100310.98
2018-06-10T15:54:31.796Z,100308.44
2018-06-10T15:57:03.543Z,100311.34
2018-06-10T15:59:34.387Z,100306.68
2018-06-10T16:02:04.926Z,100305.77
2018-06-10T16:04:37.359Z,100304.41
2018-06-10T16:07:10.409Z,100303.28
2018-06-10T16:09:44.004Z,100300.44
2018-06-10T16:12:22.222Z,100310.06
2018-06-10T16:14:55.150Z,100309.62
2018-06-10T16:17:31.576Z,100313.27
2018-06-10T16:20:02.051Z,100318.45
2018-06-10T16:22:32.443Z,100315.61
2018-06-10T16:25:02.783Z,100310.43
2018-06-10T16:27:33.400Z,100310.75
2018-06-10T16:30:03.252Z,100312.45
2018-06-10T16:32:33.507Z,100307.28
2018-06-10T16:35:03.669Z,100306.45
2018-06-10T16:37:33.619Z,100293.45
2018-06-10T16:40:03.751Z,100287.39
2018-06-10T16:42:33.856Z,100289.45
2018-06-10T16:45:03.795Z,100288.45
2018-06-10T16:47:33.791Z,100293.78
2018-06-10T16:50:03.909Z,100290.78
2018-06-10T16:52:34.116Z,100299.45
2018-06-10T16:55:05.469Z,100295.11
2018-06-10T16:57:36.965Z,100301.95
2018-06-10T17:00:09.552Z,100309.09
2018-06-10T17:02:42.956Z,100306.06
2018-06-10T17:05:15.917Z,100304.78
2018-06-10T17:07:54.821Z,100308.47
2018-06-10T17:10:28.325Z,100307.78
2018-06-10T17:13:01.989Z,100306.95
2018-06-10T17:15:32.451Z,100310.09
2018-06-10T17:18:04.500Z,100316.80
2018-06-10T17:20:37.039Z,100315.42
2018-06-10T17:23:11.515Z,100312.27
2018-06-10T17:25:54.147Z,100314.27
2018-06-10T17:29:04.590Z,100307.78
2018-06-10T17:34:44.058Z,100317.42
2018-06-10T17:37:44.394Z,100317.76
2018-06-10T17:40:15.262Z,100321.88
2018-06-10T17:43:00.199Z,100320.73
2018-06-10T17:45:45.828Z,100326.53
2018-06-10T17:52:53.063Z,100324.92
2018-06-10T17:57:10.288Z,100337.38
2018-06-10T17:59:46.123Z,100335.28
2018-06-10T18:02:25.559Z,100338.66
2018-06-10T18:04:56.309Z,100335.39
2018-06-10T18:07:54.477Z,100333.97
2018-06-10T18:10:27.445Z,100325.95
2018-06-10T18:12:58.248Z,100329.44
2018-06-10T18:15:30.368Z,100328.91
2018-06-10T18:18:02.984Z,100335.75
2018-06-10T18:21:25.878Z,100330.88
2018-06-10T18:27:25.531Z,100330.80
2018-06-10T18:29:55.770Z,100331.86
2018-06-10T18:32:32.681Z,100331.34
2018-06-10T18:35:08.594Z,100337.20
2018-06-10T18:37:40.273Z,100332.06
2018-06-10T18:40:16.299Z,100334.16
2018-06-10T18:42:47.303Z,100332.15
2018-06-10T18:45:17.818Z,100329.84
2018-06-10T18:47:47.914Z,100328.70
2018-06-10T18:50:17.871Z,100329.84
2018-06-10T18:53:14.158Z,100331.80
2018-06-10T18:59:01.593Z,100350.44
2018-06-10T19:01:52.428Z,100349.17
2018-06-10T19:04:30.143Z,100346.83
2018-06-10T19:07:00.908Z,100344.81
2018-06-10T19:09:42.574Z,100353.66
2018-06-10T19:12:18.736Z,100354.12
2018-06-10T19:14:49.549Z,100360.14
2018-06-10T19:17:20.089Z,100365.73
2018-06-10T19:19:58.056Z,100366.42
2018-06-10T19:22:29.532Z,100371.44
2018-06-10T19:24:59.704Z,100387.62
2018-06-10T19:27:31.023Z,100393.30
2018-06-10T19:30:01.318Z,100395.27
2018-06-10T19:32:33.268Z,100391.59
2018-06-10T19:35:13.159Z,100401.31
2018-06-10T19:37:57.978Z,100402.19
2018-06-10T19:40:31.071Z,100410.19
2018-06-10T19:43:02.318Z,100404.67
2018-06-10T19:45:32.559Z,100405.30
2018-06-10T19:48:08.984Z,100402.22
2018-06-10T19:50:55.024Z,100404.62
2018-06-10T19:53:30.993Z,100400.84
2018-06-10T19:56:01.248Z,100400.20
2018-06-10T19:58:31.241Z,100402.77
2018-06-10T20:01:01.120Z,100407.89
2018-06-10T20:03:31.077Z,100413.56
2018-06-10T20:06:01.409Z,100422.70
2018-06-10T20:08:31.470Z,100423.77
2018-06-10T20:11:01.969Z,100426.84
2018-06-10T20:13:32.017Z,100430.84
2018-06-10T20:16:01.959Z,100436.30
2018-06-10T20:21:19.533Z,100440.43
2018-06-10T20:24:00.183Z,100438.94
2018-06-10T20:26:31.010Z,100441.30
2018-06-10T20:29:00.876Z,100442.75
2018-06-10T20:31:31.036Z,100445.86
2018-06-10T20:34:01.993Z,100456.61
2018-06-10T20:36:31.893Z,100451.62
2018-06-10T20:39:01.961Z,100443.16
2018-06-10T20:41:32.019Z,100434.80
2018-06-10T20:44:01.847Z,100433.05
2018-06-10T20:46:36.575Z,100443.08
2018-06-10T20:49:14.058Z,100454.70
2018-06-10T20:51:49.015Z,100458.95
2018-06-10T20:54:20.290Z,100465.13
2018-06-10T20:56:50.680Z,100462.70
2018-06-10T20:59:22.527Z,100464.06
2018-06-10T21:01:53.548Z,100464.13
2018-06-10T21:04:27.356Z,100466.92
2018-06-10T21:06:57.964Z,100469.91
2018-06-10T21:09:27.995Z,100474.89
2018-06-10T21:11:57.786Z,100478.64
2018-06-10T21:14:27.750Z,100477.95
2018-06-10T21:17:07.596Z,100473.10
2018-06-10T21:19:38.135Z,100483.83
2018-06-10T21:22:12.740Z,100486.50
2018-06-10T21:27:25.529Z,100494.95
2018-06-10T21:29:55.703Z,100486.16
2018-06-10T21:32:25.750Z,100490.30
2018-06-10T21:34:55.675Z,100491.09
2018-06-10T21:37:25.899Z,100491.81
2018-06-10T21:39:55.841Z,100497.80
2018-06-10T21:42:25.729Z,100491.83
2018-06-10T21:47:55.826Z,100485.56
2018-06-10T21:50:26.294Z,100485.86
2018-06-10T21:52:56.706Z,100486.51
2018-06-10T21:55:28.017Z,100487.86
2018-06-10T22:01:07.659Z,100485.19
2018-06-10T22:03:37.732Z,100492.42
2018-06-10T22:06:21.777Z,100500.98
2018-06-10T22:11:40.448Z,100516.05
2018-06-10T22:14:32.396Z,100516.34
2018-06-10T22:17:02.532Z,100508.56
2018-06-10T22:19:52.457Z,100506.17
2018-06-10T22:22:22.700Z,100517.52
2018-06-10T22:25:08.696Z,100524.91
2018-06-10T22:27:38.971Z,100520.03
2018-06-10T22:30:08.952Z,100518.45
2018-06-10T22:32:38.732Z,100529.55
2018-06-10T22:35:08.719Z,100529.00
2018-06-10T22:37:38.898Z,100527.17
2018-06-10T22:40:08.971Z,100538.48
2018-06-10T22:42:39.015Z,100543.16
2018-06-10T22:48:46.480Z,100555.98
2018-06-10T22:57:29.776Z,100550.45
2018-06-10T23:00:24.080Z,100550.13
2018-06-10T23:02:54.210Z,100542.73
2018-06-10T23:05:24.379Z,100540.84
2018-06-10T23:07:59.410Z,100541.94
2018-06-10T23:10:29.247Z,100544.97
2018-06-10T23:12:59.181Z,100548.30
2018-06-10T23:15:29.033Z,100538.84
2018-06-10T23:17:59.068Z,100544.41
2018-06-10T23:20:29.179Z,100544.31
2018-06-10T23:22:59.285Z,100549.13
2018-06-10T23:25:29.092Z,100552.63
2018-06-10T23:27:59.185Z,100551.56
2018-06-10T23:30:29.062Z,100545.09
2018-06-10T23:32:58.930Z,100543.13
2018-06-10T23:35:28.784Z,100542.09
2018-06-10T23:37:58.651Z,100545.08
2018-06-10T23:40:28.508Z,100550.48
2018-06-10T23:42:58.435Z,100543.98
2018-06-10T23:45:28.368Z,100539.43
2018-06-10T23:47:58.372Z,100545.27
2018-06-10T23:50:28.299Z,100546.37
2018-06-10T23:53:00.049Z,100544.72
2018-06-10T23:55:30.082Z,100550.60
2018-06-10T23:58:00.391Z,100552.72
